createdAt,value
2023-04-28T00:01:55.296Z,25.50
2023-04-28T00:05:02.477Z,29.50
2023-04-28T00:08:10.333Z,26.75
2023-04-28T00:11:16.699Z,24.25
2023-04-28T00:14:25.511Z,24.25
2023-04-28T00:17:34.128Z,30.50
2023-04-28T00:20:38.478Z,26.00
2023-04-28T00:23:45.503Z,21.25
2023-04-28T00:26:51.165Z,18.25
2023-04-28T00:29:55.642Z,27.25
2023-04-28T00:32:59.663Z,22.75
2023-04-28T00:36:03.906Z,25.25
2023-04-28T00:39:10.203Z,28.00
2023-04-28T00:42:15.102Z,23.50
2023-04-28T00:45:18.848Z,25.75
2023-04-28T00:48:24.333Z,21.75
2023-04-28T00:51:29.218Z,21.50
2023-04-28T00:54:35.556Z,22.50
2023-04-28T00:57:39.316Z,21.50
2023-04-28T01:00:43.904Z,20.25
2023-04-28T01:03:47.917Z,22.75
2023-04-28T01:06:56.850Z,25.25
2023-04-28T01:10:01.846Z,26.50
2023-04-28T01:13:09.004Z,25.00
2023-04-28T01:16:13.157Z,26.00
2023-04-28T01:19:22.887Z,22.75
2023-04-28T01:22:29.103Z,22.75
2023-04-28T01:25:49.639Z,31.25
2023-04-28T01:28:53.560Z,29.50
2023-04-28T01:31:58.853Z,20.50
2023-04-28T01:35:03.041Z,25.75
2023-04-28T01:38:07.992Z,22.50
2023-04-28T01:41:13.309Z,27.00
2023-04-28T01:44:18.387Z,33.50
2023-04-28T01:47:25.935Z,25.25
2023-04-28T01:50:29.964Z,26.50
2023-04-28T01:53:33.720Z,21.00
2023-04-28T01:56:40.888Z,23.75
2023-04-28T01:59:44.522Z,18.50
2023-04-28T02:02:49.041Z,23.25
2023-04-28T02:05:54.877Z,28.75
2023-04-28T02:08:59.337Z,23.75
2023-04-28T02:12:04.856Z,18.75
2023-04-28T02:15:10.590Z,24.25
2023-04-28T02:18:14.379Z,18.75
2023-04-28T02:21:18.631Z,24.25
2023-04-28T02:24:22.668Z,19.25
2023-04-28T02:27:29.516Z,21.50
2023-04-28T02:30:33.086Z,23.25
2023-04-28T02:33:37.900Z,20.25
2023-04-28T02:36:41.674Z,25.75
2023-04-28T02:39:46.274Z,24.50
2023-04-28T02:42:51.848Z,25.00
2023-04-28T02:45:56.787Z,25.25
2023-04-28T02:49:00.597Z,22.25
2023-04-28T02:52:04.958Z,24.50
2023-04-28T02:55:09.845Z,22.25
2023-04-28T02:58:15.652Z,19.50
2023-04-28T03:01:19.421Z,23.75
2023-04-28T03:04:23.612Z,23.25
2023-04-28T03:07:27.754Z,22.25
2023-04-28T03:10:32.098Z,24.75
2023-04-28T03:13:38.774Z,23.75
2023-04-28T03:16:44.252Z,23.50
2023-04-28T03:19:48.363Z,26.50
2023-04-28T03:22:52.854Z,21.00
2023-04-28T03:25:57.016Z,20.75
2023-04-28T03:29:04.219Z,31.25
2023-04-28T03:32:08.504Z,18.50
2023-04-28T03:35:12.785Z,20.00
2023-04-28T03:38:17.759Z,43.25
2023-04-28T03:41:21.524Z,57.00
2023-04-28T03:44:45.694Z,37.00
2023-04-28T03:47:49.958Z,29.25
2023-04-28T03:50:54.545Z,43.75
2023-04-28T03:53:58.469Z,29.75
2023-04-28T03:57:04.693Z,73.67
2023-04-28T04:00:13.812Z,36.25
2023-04-28T04:03:26.501Z,35.50
2023-04-28T04:06:33.929Z,29.25
2023-04-28T04:09:38.746Z,36.25
2023-04-28T04:12:43.017Z,37.50
2023-04-28T04:15:51.210Z,67.75
2023-04-28T04:18:54.897Z,38.50
2023-04-28T04:22:02.276Z,53.50
2023-04-28T04:25:06.933Z,34.75
2023-04-28T04:28:12.893Z,31.75
2023-04-28T04:31:19.621Z,33.75
2023-04-28T04:34:24.320Z,36.25
2023-04-28T04:37:28.197Z,28.25
2023-04-28T04:40:37.009Z,29.25
2023-04-28T04:43:41.112Z,26.00
2023-04-28T04:46:47.985Z,30.50
2023-04-28T04:49:53.844Z,29.50
2023-04-28T04:52:58.614Z,26.75
2023-04-28T04:56:02.882Z,34.00
2023-04-28T04:59:08.488Z,33.00
2023-04-28T05:02:38.844Z,31.25
2023-04-28T05:05:46.305Z,26.25
2023-04-28T05:08:59.415Z,71.00
2023-04-28T05:12:05.004Z,48.75
2023-04-28T05:15:09.792Z,58.25
2023-04-28T05:18:21.514Z,79.75
2023-04-28T05:21:43.696Z,80.75
2023-04-28T05:24:49.181Z,60.25
2023-04-28T05:27:53.161Z,55.00
2023-04-28T05:30:57.619Z,41.75
2023-04-28T05:34:02.824Z,53.00
2023-04-28T05:37:07.082Z,56.25
2023-04-28T05:40:13.312Z,55.75
2023-04-28T05:43:17.793Z,49.50
2023-04-28T05:46:30.544Z,44.25
2023-04-28T05:49:38.983Z,37.25
2023-04-28T05:52:43.024Z,42.25
2023-04-28T05:55:48.714Z,36.25
2023-04-28T05:58:52.653Z,40.00
2023-04-28T06:01:56.979Z,40.25
2023-04-28T06:05:02.713Z,33.00
2023-04-28T06:08:08.281Z,36.50
2023-04-28T06:11:12.061Z,30.50
2023-04-28T06:14:18.763Z,39.75
2023-04-28T06:17:23.053Z,34.50
2023-04-28T06:20:30.003Z,37.00
2023-04-28T06:23:33.624Z,35.75
2023-04-28T06:26:38.157Z,44.75
2023-04-28T06:29:42.506Z,54.50
2023-04-28T06:32:47.472Z,84.75
2023-04-28T06:35:55.160Z,66.25
2023-04-28T06:38:59.614Z,57.75
2023-04-28T06:42:03.352Z,54.75
2023-04-28T06:45:11.518Z,49.00
2023-04-28T06:48:15.275Z,52.00
2023-04-28T06:51:21.701Z,46.75
2023-04-28T06:54:25.705Z,50.25
2023-04-28T06:57:30.682Z,51.75
2023-04-28T07:00:35.105Z,44.00
2023-04-28T07:03:39.480Z,47.00
2023-04-28T07:06:44.552Z,51.25
2023-04-28T07:09:48.863Z,37.75
2023-04-28T07:12:53.075Z,38.25
2023-04-28T07:15:57.075Z,37.50
2023-04-28T07:19:00.737Z,32.25
2023-04-28T07:22:06.216Z,33.75
2023-04-28T07:25:10.116Z,21.00
2023-04-28T07:28:14.815Z,24.67
2023-04-28T07:31:18.605Z,14.33
2023-04-28T07:34:22.702Z,16.67
2023-04-28T07:37:27.824Z,11.00
2023-04-28T07:40:31.927Z,14.67
2023-04-28T07:43:35.748Z,15.00
2023-04-28T07:46:40.021Z,16.00
2023-04-28T07:49:43.538Z,11.33
2023-04-28T07:52:49.871Z,12.33
2023-04-28T07:55:53.510Z,6.33
2023-04-28T07:58:57.535Z,8.00
2023-04-28T08:02:01.116Z,14.00
2023-04-28T08:05:11.093Z,14.00
2023-04-28T08:08:16.258Z,11.00
2023-04-28T08:11:24.555Z,7.67
2023-04-28T08:14:28.286Z,8.33
2023-04-28T08:17:32.202Z,14.67
2023-04-28T08:20:36.264Z,14.67
2023-04-28T08:23:41.634Z,6.33
2023-04-28T08:26:45.731Z,7.33
2023-04-28T08:29:49.987Z,8.00
2023-04-28T08:32:54.167Z,8.33
2023-04-28T08:35:58.290Z,7.33
2023-04-28T08:39:05.268Z,9.67
2023-04-28T08:42:09.847Z,7.67
2023-04-28T08:45:15.763Z,9.33
2023-04-28T08:48:21.481Z,8.00
2023-04-28T08:51:33.524Z,8.33
2023-04-28T08:54:40.039Z,6.00
2023-04-28T08:57:46.594Z,7.00
2023-04-28T09:00:50.399Z,7.67
2023-04-28T09:03:55.704Z,6.00
2023-04-28T09:06:59.672Z,19.00
2023-04-28T09:10:26.942Z,17.25
2023-04-28T09:13:32.219Z,5.00
2023-04-28T09:16:42.412Z,4.33
2023-04-28T09:19:46.382Z,4.33
2023-04-28T09:22:51.410Z,6.33
2023-04-28T09:26:01.692Z,3.00
2023-04-28T09:29:14.188Z,5.33
2023-04-28T09:32:19.877Z,9.00
2023-04-28T09:35:40.342Z,8.00
2023-04-28T09:38:45.808Z,14.50
2023-04-28T09:41:51.039Z,7.00
2023-04-28T09:44:55.298Z,6.33
2023-04-28T09:48:12.294Z,5.00
2023-04-28T09:51:22.751Z,5.00
2023-04-28T09:54:31.391Z,9.33
2023-04-28T09:57:37.736Z,5.33
2023-04-28T10:00:42.296Z,5.33
2023-04-28T10:03:47.924Z,3.33
2023-04-28T10:06:51.834Z,5.00
2023-04-28T10:09:57.345Z,5.00
2023-04-28T10:13:03.073Z,5.67
2023-04-28T10:16:09.050Z,8.75
2023-04-28T10:19:13.400Z,3.67
2023-04-28T10:22:43.450Z,5.00
2023-04-28T10:25:51.108Z,4.00
2023-04-28T10:28:56.894Z,4.33
2023-04-28T10:32:20.341Z,4.00
2023-04-28T10:35:44.742Z,4.00
2023-04-28T10:39:13.216Z,4.67
2023-04-28T10:42:50.321Z,6.33
2023-04-28T10:46:11.563Z,2.67
2023-04-28T10:49:15.601Z,6.67
2023-04-28T10:52:52.366Z,4.33
2023-04-28T10:56:07.928Z,5.33
2023-04-28T10:59:32.506Z,5.00
2023-04-28T11:02:46.314Z,5.00
2023-04-28T11:06:20.464Z,4.00
2023-04-28T11:09:49.927Z,5.00
2023-04-28T11:13:27.164Z,5.00
2023-04-28T11:16:33.163Z,6.00
2023-04-28T11:19:40.240Z,4.33
2023-04-28T11:22:43.959Z,7.00
2023-04-28T11:26:41.005Z,4.67
2023-04-28T11:29:46.957Z,3.33
2023-04-28T11:32:52.342Z,5.00
2023-04-28T11:35:57.782Z,4.00
